Time;durP1;ratioP1;P1;durP2;ratioP2;P2;SDS_P1;SDS_P2;PMS_P1;PMS_P2;Temp;Humidity;BMP_temperature;BMP_pressure;BME280_temperature;BME280_humidity;BME280_pressure;Samples;Min_cycle;Max_cycle;Signal;HPM_P1;HPM_P2
2024/01/21 00:03:23;;;;;;;;;;;-2.20;99.90;;;;;;6700282;88;20094;-74
2024/01/21 00:13:23;;;;;;;;;;;-2.30;99.90;;;;;;6703357;88;20078;-75
2024/01/21 00:23:24;;;;;;;;;;;-2.40;99.90;;;;;;6702284;88;20075;-76
2024/01/21 00:33:24;;;;;;;;;;;-2.40;99.90;;;;;;6700962;88;20105;-75
2024/01/21 00:43:25;;;;;;;;;;;-2.50;99.90;;;;;;6701266;88;20082;-75
2024/01/21 01:04:07;;;;;;;;;;;-2.50;99.90;;;;;;6741814;88;20096;-75
2024/01/21 01:14:07;;;;;;;;;;;-2.50;99.90;;;;;;6734780;88;20186;-76
2024/01/21 01:24:08;;;;;;;;;;;-2.50;99.90;;;;;;6722917;88;20766;-76
2024/01/21 01:34:10;;;;;;;;;;;-2.40;99.90;;;;;;6722528;88;20125;-76
2024/01/21 01:44:11;;;;;;;;;;;-2.30;99.90;;;;;;6729330;88;20105;-76
2024/01/21 01:54:11;;;;;;;;;;;-2.30;99.90;;;;;;6742395;88;20117;-77
2024/01/21 02:04:11;;;;;;;;;;;-2.20;99.90;;;;;;6741660;88;20126;-77
2024/01/21 02:14:12;;;;;;;;;;;-2.10;99.90;;;;;;6738488;88;20766;-77
2024/01/21 02:24:13;;;;;;;;;;;-2.00;99.90;;;;;;6736585;88;20166;-78
2024/01/21 02:34:13;;;;;;;;;;;-2.00;99.90;;;;;;6732439;88;20076;-78
2024/01/21 02:44:13;;;;;;;;;;;-2.10;99.90;;;;;;6732996;88;20076;-78
2024/01/21 02:54:14;;;;;;;;;;;-2.30;99.90;;;;;;6724943;88;20055;-76
2024/01/21 03:04:14;;;;;;;;;;;-2.40;99.90;;;;;;6721421;88;20610;-76
2024/01/21 03:14:15;;;;;;;;;;;-2.50;99.90;;;;;;6723267;88;20508;-76
2024/01/21 03:24:15;;;;;;;;;;;-2.70;99.90;;;;;;6721752;88;20119;-76
2024/01/21 03:34:16;;;;;;;;;;;-2.80;99.90;;;;;;6721862;88;20075;-76
2024/01/21 03:44:16;;;;;;;;;;;-2.60;99.90;;;;;;6720836;88;20526;-75
2024/01/21 03:54:17;;;;;;;;;;;-2.60;99.90;;;;;;6727307;88;20138;-78
2024/01/21 04:04:17;;;;;;;;;;;-2.70;99.90;;;;;;6735959;88;20068;-77
2024/01/21 04:14:18;;;;;;;;;;;-2.70;99.90;;;;;;6729370;88;20717;-77
2024/01/21 04:24:18;;;;;;;;;;;-2.70;99.90;;;;;;6734724;88;20100;-76
2024/01/21 04:34:19;;;;;;;;;;;-2.50;99.90;;;;;;6736787;88;20074;-78
2024/01/21 04:44:19;;;;;;;;;;;-2.40;99.90;;;;;;6736252;88;20075;-77
2024/01/21 04:54:19;;;;;;;;;;;-2.30;99.90;;;;;;6733020;88;20059;-78
2024/01/21 05:04:20;;;;;;;;;;;-2.30;99.90;;;;;;6738677;88;20055;-77
2024/01/21 05:14:20;;;;;;;;;;;-2.20;99.90;;;;;;6733555;88;20082;-76
2024/01/21 05:24:21;;;;;;;;;;;-2.20;99.90;;;;;;6734081;88;20054;-77
2024/01/21 05:34:21;;;;;;;;;;;-2.10;99.90;;;;;;6739443;88;20079;-79
2024/01/21 05:44:22;;;;;;;;;;;-2.10;99.90;;;;;;6734088;88;20086;-77
2024/01/21 05:54:22;;;;;;;;;;;-2.10;99.90;;;;;;6725150;88;20117;-77
2024/01/21 06:04:23;;;;;;;;;;;-2.10;99.90;;;;;;6724881;88;20534;-76
2024/01/21 06:14:25;;;;;;;;;;;-1.90;99.90;;;;;;6725522;88;20099;-77
2024/01/21 06:24:25;;;;;;;;;;;-1.90;99.90;;;;;;6732708;88;20085;-77
2024/01/21 06:34:25;;;;;;;;;;;-1.80;99.90;;;;;;6734419;88;20082;-77
2024/01/21 06:44:26;;;;;;;;;;;-1.90;99.90;;;;;;6740215;77;20057;-75
2024/01/21 06:54:27;;;;;;;;;;;-2.00;99.90;;;;;;6720131;88;20079;-75
2024/01/21 07:04:27;;;;;;;;;;;-1.70;99.90;;;;;;6728052;88;20061;-75
2024/01/21 07:14:33;;;;;;;;;;;-1.60;99.90;;;;;;6728810;88;20070;-75
2024/01/21 07:24:34;;;;;;;;;;;-1.60;99.90;;;;;;6721827;88;20162;-75
2024/01/21 07:34:34;;;;;;;;;;;-1.50;99.90;;;;;;6721160;88;20088;-75
2024/01/21 07:44:35;;;;;;;;;;;-1.40;99.90;;;;;;6728519;88;20131;-75
2024/01/21 07:54:35;;;;;;;;;;;-1.30;99.90;;;;;;6727400;88;20121;-76
2024/01/21 08:04:36;;;;;;;;;;;-1.30;99.90;;;;;;6722575;88;20165;-74
2024/01/21 08:14:36;;;;;;;;;;;-1.20;99.90;;;;;;6727205;88;20072;-78
2024/01/21 08:24:36;;;;;;;;;;;-1.20;99.90;;;;;;6724331;88;20112;-77
2024/01/21 08:34:38;;;;;;;;;;;-1.20;99.90;;;;;;6723749;88;20108;-76
2024/01/21 08:44:38;;;;;;;;;;;-1.20;99.90;;;;;;6728015;87;20069;-76
2024/01/21 08:54:39;;;;;;;;;;;-1.00;99.90;;;;;;6730782;88;20084;-76
2024/01/21 09:04:42;;;;;;;;;;;-0.80;99.90;;;;;;6731429;88;20066;-76
2024/01/21 09:14:43;;;;;;;;;;;-0.50;99.90;;;;;;6735781;88;20210;-76
2024/01/21 09:24:43;;;;;;;;;;;0.10;99.90;;;;;;6733322;88;20636;-77
2024/01/21 09:34:44;;;;;;;;;;;0.40;99.90;;;;;;6734680;88;20062;-76
2024/01/21 09:44:45;;;;;;;;;;;0.40;99.90;;;;;;6731261;88;20682;-74
2024/01/21 09:54:46;;;;;;;;;;;0.70;99.90;;;;;;6729843;88;20068;-75
2024/01/21 10:04:46;;;;;;;;;;;1.10;99.90;;;;;;6730001;88;20070;-74
2024/01/21 10:14:48;;;;;;;;;;;1.50;99.90;;;;;;6728857;88;20057;-75
2024/01/21 10:24:49;;;;;;;;;;;1.60;99.90;;;;;;6727766;88;20083;-75
2024/01/21 10:34:50;;;;;;;;;;;1.80;99.90;;;;;;6731012;88;20078;-75
2024/01/21 10:44:51;;;;;;;;;;;1.90;99.90;;;;;;6732626;87;20584;-75
2024/01/21 10:54:53;;;;;;;;;;;2.10;99.90;;;;;;6732751;88;20101;-75
2024/01/21 11:04:54;;;;;;;;;;;2.20;99.90;;;;;;6733231;88;20091;-75
2024/01/21 11:14:55;;;;;;;;;;;2.40;99.90;;;;;;6735626;88;20772;-75
2024/01/21 11:24:55;;;;;;;;;;;2.60;99.90;;;;;;6733020;88;20102;-76
2024/01/21 11:35:04;;;;;;;;;;;2.90;99.90;;;;;;6727914;88;20075;-76
2024/01/21 11:45:05;;;;;;;;;;;3.00;99.90;;;;;;6733478;88;20097;-76
2024/01/21 11:55:05;;;;;;;;;;;3.00;99.90;;;;;;6735209;88;20073;-77
2024/01/21 12:05:06;;;;;;;;;;;3.20;99.90;;;;;;6731082;88;20097;-75
2024/01/21 12:15:06;;;;;;;;;;;3.30;99.90;;;;;;6731197;88;20062;-75
2024/01/21 12:25:08;;;;;;;;;;;3.50;99.90;;;;;;6728101;88;20070;-77
2024/01/21 12:35:08;;;;;;;;;;;3.70;99.90;;;;;;6735818;88;20348;-77
2024/01/21 12:55:12;;;;;;;;;;;4.00;99.90;;;;;;6742098;88;20123;-79
2024/01/21 13:05:13;;;;;;;;;;;4.30;99.90;;;;;;6731249;88;20111;-78
2024/01/21 13:15:13;;;;;;;;;;;4.70;99.90;;;;;;6730441;88;20655;-78
2024/01/21 13:25:16;;;;;;;;;;;4.60;99.90;;;;;;6727934;88;20075;-78
2024/01/21 13:35:16;;;;;;;;;;;4.80;99.90;;;;;;6731526;88;20144;-78
2024/01/21 13:45:16;;;;;;;;;;;4.60;99.90;;;;;;6727985;88;20129;-78
2024/01/21 13:55:17;;;;;;;;;;;4.70;99.90;;;;;;6727169;88;20465;-81
2024/01/21 14:05:20;;;;;;;;;;;5.00;99.90;;;;;;6731261;88;20077;-78
2024/01/21 14:15:21;;;;;;;;;;;5.00;99.90;;;;;;6734158;88;20059;-78
2024/01/21 14:25:32;;;;;;;;;;;4.60;99.90;;;;;;6740148;88;20070;-78
2024/01/21 14:35:32;;;;;;;;;;;4.10;99.90;;;;;;6732420;88;20109;-77
2024/01/21 14:45:33;;;;;;;;;;;4.10;99.90;;;;;;6727779;88;20134;-78
2024/01/21 14:55:33;;;;;;;;;;;3.90;99.90;;;;;;6729050;88;20585;-77
2024/01/21 15:05:34;;;;;;;;;;;3.70;99.90;;;;;;6732620;88;20075;-77
2024/01/21 15:15:35;;;;;;;;;;;3.70;99.90;;;;;;6729623;88;20059;-77
2024/01/21 15:25:35;;;;;;;;;;;3.60;99.90;;;;;;6731933;88;20074;-77
2024/01/21 15:35:35;;;;;;;;;;;3.60;99.90;;;;;;6730383;88;20183;-77
2024/01/21 15:45:36;;;;;;;;;;;3.50;99.90;;;;;;6726091;88;20157;-77
2024/01/21 15:55:38;;;;;;;;;;;3.50;99.90;;;;;;6728180;88;20046;-78
2024/01/21 16:05:38;;;;;;;;;;;3.50;99.90;;;;;;6725260;88;20151;-77
2024/01/21 16:15:38;;;;;;;;;;;3.60;99.90;;;;;;6726030;88;20157;-82
2024/01/21 16:25:39;;;;;;;;;;;3.50;99.90;;;;;;6728378;88;20641;-77
2024/01/21 16:35:39;;;;;;;;;;;3.50;99.90;;;;;;6731290;88;20100;-77
2024/01/21 16:45:40;;;;;;;;;;;3.70;99.90;;;;;;6722537;88;20233;-77
2024/01/21 16:55:42;;;;;;;;;;;3.30;99.90;;;;;;6727353;88;20071;-77
2024/01/21 17:05:42;;;;;;;;;;;3.40;99.90;;;;;;6732821;88;20184;-77
2024/01/21 17:15:43;;;;;;;;;;;3.10;99.90;;;;;;6733957;88;20200;-77
2024/01/21 17:25:44;;;;;;;;;;;3.00;99.90;;;;;;6727428;88;20099;-77
2024/01/21 17:35:45;;;;;;;;;;;3.10;99.90;;;;;;6731527;88;20062;-77
2024/01/21 17:45:45;;;;;;;;;;;3.10;99.90;;;;;;6741723;88;20132;-77
2024/01/21 17:55:45;;;;;;;;;;;3.20;99.90;;;;;;6735653;88;20189;-78
2024/01/21 18:05:46;;;;;;;;;;;3.30;99.90;;;;;;6739558;88;20078;-77
2024/01/21 18:15:47;;;;;;;;;;;3.20;99.90;;;;;;6732044;88;20498;-78
2024/01/21 18:25:47;;;;;;;;;;;3.40;99.90;;;;;;6733354;88;20066;-78
2024/01/21 18:35:53;;;;;;;;;;;3.90;99.90;;;;;;6735469;88;20124;-79
2024/01/21 18:45:53;;;;;;;;;;;3.70;99.90;;;;;;6736227;88;20088;-78
2024/01/21 18:55:54;;;;;;;;;;;3.50;99.90;;;;;;6754895;88;20043;-78
2024/01/21 19:05:54;;;;;;;;;;;3.50;99.90;;;;;;6750138;88;20077;-80
2024/01/21 19:15:55;;;;;;;;;;;3.50;99.90;;;;;;6751289;88;20091;-79
2024/01/21 19:25:56;;;;;;;;;;;3.40;99.90;;;;;;6752786;88;20090;-80
2024/01/21 19:35:56;;;;;;;;;;;3.20;99.90;;;;;;6751807;88;20139;-79
2024/01/21 19:45:57;;;;;;;;;;;3.60;99.90;;;;;;6747928;88;20560;-79
2024/01/21 19:55:57;;;;;;;;;;;3.90;99.90;;;;;;6747722;88;20101;-80
2024/01/21 20:05:58;;;;;;;;;;;4.00;99.90;;;;;;6743974;88;20626;-79
2024/01/21 20:16:00;;;;;;;;;;;4.10;99.90;;;;;;6740611;88;20118;-79
2024/01/21 20:26:01;;;;;;;;;;;4.20;99.90;;;;;;6734938;88;20071;-79
2024/01/21 20:36:01;;;;;;;;;;;4.30;99.90;;;;;;6741479;88;20066;-80
2024/01/21 20:46:02;;;;;;;;;;;4.40;99.90;;;;;;6737431;88;20058;-80
2024/01/21 20:56:05;;;;;;;;;;;4.40;99.90;;;;;;6736629;88;20050;-79
2024/01/21 21:06:06;;;;;;;;;;;4.80;99.90;;;;;;6740146;88;20199;-80
2024/01/21 21:16:06;;;;;;;;;;;5.00;99.90;;;;;;6733549;88;20054;-80
2024/01/21 21:26:07;;;;;;;;;;;5.70;99.90;;;;;;6735445;88;20647;-79
2024/01/21 21:36:07;;;;;;;;;;;5.70;99.90;;;;;;6741769;88;20058;-80
2024/01/21 21:46:08;;;;;;;;;;;5.80;99.90;;;;;;6732606;88;20465;-80
2024/01/21 21:56:08;;;;;;;;;;;5.60;99.90;;;;;;6728044;88;20076;-79
2024/01/21 22:06:10;;;;;;;;;;;5.80;99.90;;;;;;6726171;88;20054;-78
2024/01/21 22:16:11;;;;;;;;;;;6.00;99.90;;;;;;6722657;88;20200;-79
2024/01/21 22:26:12;;;;;;;;;;;6.20;99.90;;;;;;6743825;88;20498;-79
2024/01/21 22:36:12;;;;;;;;;;;6.30;99.90;;;;;;6738915;88;20071;-79
2024/01/21 22:46:14;;;;;;;;;;;6.30;99.90;;;;;;6738665;88;20066;-79
2024/01/21 22:56:14;;;;;;;;;;;6.40;99.90;;;;;;6736230;88;20053;-78
2024/01/21 23:06:14;;;;;;;;;;;6.50;99.90;;;;;;6739721;88;20082;-78
2024/01/21 23:16:16;;;;;;;;;;;6.70;99.90;;;;;;6735388;88;20483;-78
2024/01/21 23:26:17;;;;;;;;;;;6.70;99.90;;;;;;6735682;88;20057;-78
2024/01/21 23:36:17;;;;;;;;;;;6.80;99.90;;;;;;6735166;88;20076;-78
2024/01/21 23:46:18;;;;;;;;;;;7.00;99.90;;;;;;6740492;88;20062;-77
2024/01/21 23:56:18;;;;;;;;;;;7.10;99.90;;;;;;6742576;88;20050;-76
